Tandou Lake Airport

YTAD · Australien

METAR-Geschichte YTAD · Tandou Lake Airport

Unten siehst du die METARs der letzten paar Tage. Wähle ein Jahr, um ältere METARs ab dem Jahr 2007 zu durchsuchen.

15. April 2024

Uhrzeit Code Wetter Temp. Sichtweite Wolkendecke Wind METAR/SPECI
02:30
V
12 °C 10 km+ - 050° 050° 4 kt METAR YPAD 141630Z 05004KT CAVOK 12/09 Q1023 SCT190
02:00
V
12 °C 10 km+ - 020° 020° 4 kt METAR YPAD 141600Z 02004KT CAVOK 12/09 Q1023 BKN190
01:30
V
12 °C 10 km+ - 030° 030° 5 kt METAR YPAD 141530Z 03005KT CAVOK 12/09 Q1024
01:00
V
12 °C 10 km+ - 130° 130° 3 kt METAR YPAD 141500Z 13003KT CAVOK 12/09 Q1024 BKN240
00:30
V
12 °C 10 km+ - 360° 360° 0 kt METAR YPAD 141430Z 00000KT CAVOK 12/09 Q1024
00:00
V
13 °C 10 km+ - 360° 360° 0 kt METAR YPAD 141400Z 00000KT CAVOK 13/10 Q1024

14. April 2024

Uhrzeit Code Wetter Temp. Sichtweite Wolkendecke Wind METAR/SPECI
23:30
V
13 °C 10 km+ - 150° 150° 3 kt METAR YPAD 141330Z 15003KT CAVOK 13/10 Q1024
23:00
V
13 °C 10 km+ - 150° 150° 5 kt METAR YPAD 141300Z 15005KT CAVOK 13/10 Q1024
22:30
V
13 °C 10 km+ - 150° 150° 5 kt METAR YPAD 141230Z 15005KT CAVOK 13/10 Q1024
22:00
V
14 °C 10 km+ - 170° 170° 7 kt METAR YPAD 141200Z 17007KT CAVOK 14/10 Q1024
21:30
V
15 °C 10 km+ - 170° 170° 7 kt METAR YPAD 141130Z 17007KT CAVOK 15/10 Q1024
21:00
V
15 °C 10 km+ - 170° 170° 8 kt METAR YPAD 141100Z 17008KT CAVOK 15/10 Q1024
20:30
V
16 °C 10 km+ - 180° 180° 8 kt METAR YPAD 141030Z 18008KT CAVOK 16/11 Q1023
20:00
V
17 °C 10 km+ - 210° 210° 7 kt METAR YPAD 141000Z 21007KT CAVOK 17/11 Q1023
19:30
V
17 °C 10 km+ - 200° 200° 6 kt METAR YPAD 140930Z 20006KT CAVOK 17/11 Q1023
19:00
V
17 °C 10 km+ - 210° 210° 7 kt METAR YPAD 140900Z 21007KT CAVOK 17/11 Q1022
18:30
V
18 °C 10 km+ - 200° 200° 9 kt METAR YPAD 140830Z 20009KT CAVOK 18/11 Q1022
18:00
V
18 °C 10 km+ - 220° 220° 11 kt METAR YPAD 140800Z 22011KT CAVOK 18/11 Q1022
17:30
V
19 °C 10 km+ - 230° 230° 12 kt METAR YPAD 140730Z 23012KT CAVOK 19/12 Q1022
17:00
V
19 °C 10 km+ 34.000 ft 210° 210° 10 kt METAR YPAD 140700Z 21010KT 9999 FEW048 BKN340 19/12 Q1021 RF00.0/000.0
16:30
V
19 °C 10 km+ 34.000 ft 220° 220° 9 kt METAR YPAD 140630Z 22009KT 9999 FEW048 BKN340 19/11 Q1021 RF00.0/000.0
16:00
V
19 °C 10 km+ 34.000 ft 210° 210° 8 kt METAR YPAD 140600Z 21008KT 9999 FEW046 BKN340 19/10 Q1022 RF00.0/000.0
15:30
V
19 °C 10 km+ 34.000 ft 220° 220° 9 kt METAR YPAD 140530Z 22009KT 9999 FEW048 BKN340 19/11 Q1022 RF00.0/000.0
15:00
V
20 °C 10 km+ 34.000 ft 210° 210° 9 kt METAR YPAD 140500Z 21009KT 9999 FEW045 BKN340 20/11 Q1022 RF00.0/000.0
14:30
V
19 °C 10 km+ 34.000 ft 230° 230° 9 kt METAR YPAD 140430Z 23009KT 9999 FEW045 BKN340 19/10 Q1022 RF00.0/000.0
14:00
V
19 °C 10 km+ - 240° 240° 8 kt METAR YPAD 140400Z 24008KT 9999 FEW045 SCT340 19/10 Q1022 RF00.0/000.0
13:30
V
19 °C 10 km+ - 260° 260° 7 kt METAR YPAD 140330Z 26007KT CAVOK 19/10 Q1022
13:00
V
20 °C 10 km+ - 260° 260° 7 kt METAR YPAD 140300Z 26007KT CAVOK 20/10 Q1023
12:30
V
19 °C 10 km+ - 280° 280° 7 kt METAR YPAD 140230Z 28007KT CAVOK 19/09 Q1023
12:00
V
17 °C 10 km+ - 270° 270° 9 kt METAR YPAD 140200Z 27009KT CAVOK 17/10 Q1023
11:30
V
19 °C 10 km+ - 260° 260° 7 kt METAR YPAD 140130Z 26007KT CAVOK 19/09 Q1023
11:00
V
18 °C 10 km+ - 340° 340° 6 kt METAR YPAD 140100Z 34006KT 310V030 CAVOK 18/09 Q1023 RF00.0/000.0
10:30
V
18 °C 10 km+ - 350° 350° 3 kt METAR YPAD 140030Z 35003KT CAVOK 18/08 Q1024
10:00
V
17 °C 10 km+ - 340° 340° 1 kt METAR YPAD 140000Z 34001KT CAVOK 17/08 Q1024
09:30
V
16 °C 10 km+ - 030° 030° 2 kt METAR YPAD 132330Z 03002KT CAVOK 16/09 Q1024
09:00
V
14 °C 10 km+ - 040° 040° 3 kt METAR YPAD 132300Z 04003KT CAVOK 14/09 Q1024
08:30
V
12 °C 10 km+ - 060° 060° 4 kt METAR YPAD 132230Z 06004KT CAVOK 12/09 Q1024
08:00
V
10 °C 10 km+ - 070° 070° 4 kt METAR YPAD 132200Z 07004KT CAVOK 10/08 Q1024
07:30
V
8 °C 10 km+ - 360° 360° 0 kt METAR YPAD 132130Z 00000KT CAVOK 08/07 Q1023
07:00
V
9 °C 10 km+ - 360° 360° 0 kt METAR YPAD 132100Z 00000KT CAVOK 09/07 Q1023
06:30
V
8 °C 10 km+ - 090° 090° 2 kt METAR YPAD 132030Z 09002KT CAVOK 08/06 Q1023
06:00
V
8 °C 10 km+ - 090° 090° 4 kt METAR YPAD 132000Z 09004KT 9999 FEW027 08/06 Q1023
05:30
V
8 °C 10 km+ - 080° 080° 4 kt METAR YPAD 131930Z 08004KT 9999 FEW027 08/06 Q1023
05:00
V
8 °C 10 km+ - 360° 360° 0 kt METAR YPAD 131900Z 00000KT 9999 FEW027 08/07 Q1023
04:30
V
9 °C 10 km+ - 360° 360° 0 kt METAR YPAD 131830Z 00000KT 9999 FEW027 09/07 Q1022
04:00
V
9 °C 10 km+ - 360° 360° 0 kt METAR YPAD 131800Z 00000KT 9999 FEW027 09/07 Q1022
03:30
V
9 °C 10 km+ - 100° 100° 3 kt METAR YPAD 131730Z 10003KT 9999 FEW030 09/07 Q1023
03:00
V
9 °C 10 km+ - 100° 100° 4 kt METAR YPAD 131700Z 10004KT 9999 FEW030 09/07 Q1023
02:30
V
9 °C 10 km+ - 100° 100° 3 kt METAR YPAD 131630Z 10003KT 9999 FEW030 09/08 Q1023
02:00
V
9 °C 10 km+ - 120° 120° 3 kt METAR YPAD 131600Z 12003KT 9999 FEW030 09/08 Q1023
01:30
V
10 °C 10 km+ - 360° 360° 0 kt METAR YPAD 131530Z 00000KT 9999 FEW030 10/08 Q1023
01:00
V
10 °C 10 km+ - 360° 360° 0 kt METAR YPAD 131500Z 00000KT 9999 FEW030 10/08 Q1023
00:30
V
10 °C 10 km+ - 360° 360° 0 kt METAR YPAD 131430Z 00000KT 9999 FEW030 10/07 Q1023
00:00
V
11 °C 10 km+ - 360° 360° 0 kt METAR YPAD 131400Z 00000KT 9999 FEW030 11/08 Q1023

13. April 2024

Uhrzeit Code Wetter Temp. Sichtweite Wolkendecke Wind METAR/SPECI
23:30
V
12 °C 10 km+ - 130° 130° 3 kt METAR YPAD 131330Z 13003KT 9999 FEW030 12/08 Q1023
23:00
V
12 °C 10 km+ - 150° 150° 4 kt METAR YPAD 131300Z 15004KT 9999 FEW030 12/08 Q1024
22:30
V
12 °C 10 km+ - 160° 160° 5 kt METAR YPAD 131230Z 16005KT 9999 FEW030 12/09 Q1024
22:00
V
13 °C 10 km+ - 150° 150° 6 kt METAR YPAD 131200Z 15006KT 9999 FEW030 13/09 Q1024
21:30
V
14 °C 10 km+ - 160° 160° 7 kt METAR YPAD 131130Z 16007KT 9999 FEW030 14/09 Q1024
21:00
V
14 °C 10 km+ - 150° 150° 8 kt METAR YPAD 131100Z 15008KT 9999 FEW030 14/09 Q1024
20:30
V
15 °C 10 km+ - 140° 140° 8 kt METAR YPAD 131030Z 14008KT 9999 FEW030 15/09 Q1024
20:00
V
15 °C 10 km+ - 150° 150° 9 kt METAR YPAD 131000Z 15009KT 9999 FEW030 15/10 Q1023
19:30
V
16 °C 10 km+ - 150° 150° 9 kt METAR YPAD 130930Z 15009KT 9999 FEW030 16/10 Q1023
19:00
V
17 °C 10 km+ - 160° 160° 9 kt METAR YPAD 130900Z 16009KT 9999 FEW035 17/10 Q1023
18:30
V
17 °C 10 km+ - 210° 210° 10 kt METAR YPAD 130830Z 21010KT 9999 FEW035 17/12 Q1022
18:00
V
17 °C 10 km+ - 220° 220° 12 kt METAR YPAD 130800Z 22012KT 9999 FEW035 17/11 Q1022 SMOKE TO NE
17:30
V
17 °C 10 km+ - 220° 220° 13 kt METAR YPAD 130730Z 22013KT 9999 FEW038 17/11 Q1022
17:00
V
17 °C 10 km+ - 230° 230° 14 kt METAR YPAD 130700Z 23014KT 9999 FEW018 17/11 Q1022
16:30
V
18 °C 10 km+ - 220° 220° 14 kt METAR YPAD 130630Z 22014KT 9999 FEW022 18/11 Q1022
16:00
V
18 °C 10 km+ - 230° 230° 14 kt METAR YPAD 130600Z 23014KT 9999 FEW022 18/12 Q1023
15:30
V
18 °C 10 km+ - 230° 230° 14 kt METAR YPAD 130530Z 23014KT 9999 FEW027 18/11 Q1023
15:00
V
18 °C 10 km+ - 240° 240° 14 kt METAR YPAD 130500Z 24014KT 9999 FEW025 18/11 Q1023
14:30
V
18 °C 10 km+ - 240° 240° 15 kt METAR YPAD 130430Z 24015KT 9999 FEW022 18/11 Q1023
14:00
V
19 °C 10 km+ - 240° 240° 13 kt METAR YPAD 130400Z 24013KT 9999 FEW022 19/10 Q1023
13:30
V
18 °C 10 km+ - 250° 250° 12 kt METAR YPAD 130330Z 25012KT 9999 FEW022 SCT040 18/10 Q1024 RF00.0/000.0
13:00
V
19 °C 10 km+ 3.800 ft 240° 240° 11 kt METAR YPAD 130300Z 24011KT 9999 FEW022 BKN038 19/10 Q1024 RF00.0/000.0
12:30
V
18 °C 10 km+ 3.800 ft 240° 240° 9 kt METAR YPAD 130230Z 24009KT 9999 FEW020 BKN038 18/09 Q1025 RF00.0/000.0
12:00
V
18 °C 10 km+ 3.700 ft 240° 240° 6 kt METAR YPAD 130200Z 24006KT 9999 FEW020 BKN037 18/09 Q1025 RF00.0/000.0
11:30
V
18 °C 10 km+ 3.700 ft 120° 120° 7 kt METAR YPAD 130130Z 12007KT 9999 FEW020 BKN037 18/08 Q1025 RF00.0/000.0
11:00
V
18 °C 10 km+ 3.700 ft 160° 160° 8 kt METAR YPAD 130100Z 16008KT 100V180 9999 FEW020 BKN037 18/08 Q1025
10:30
V
16 °C 10 km+ 3.700 ft 140° 140° 7 kt METAR YPAD 130030Z 14007KT 9999 FEW022 BKN037 16/07 Q1026 RF00.0/000.0
10:00
V
17 °C 10 km+ 3.800 ft 120° 120° 8 kt METAR YPAD 130000Z 12008KT 9999 FEW022 BKN038 17/08 Q1026 RF00.0/000.0
09:30
V
16 °C 10 km+ 3.500 ft 110° 110° 8 kt METAR YPAD 122330Z 11008KT 9999 BKN035 16/08 Q1026
09:00
V
16 °C 10 km+ 3.500 ft 120° 120° 9 kt METAR YPAD 122300Z 12009KT 9999 BKN035 16/08 Q1025
08:30
V
16 °C 10 km+ 3.500 ft 120° 120° 7 kt METAR YPAD 122230Z 12007KT 9999 BKN035 16/08 Q1025
08:00
V
15 °C 10 km+ 3.500 ft 120° 120° 8 kt METAR YPAD 122200Z 12008KT 9999 BKN035 15/08 Q1025
07:30
V
14 °C 10 km+ 3.500 ft 120° 120° 8 kt METAR YPAD 122130Z 12008KT 9999 BKN035 14/08 Q1025
07:00
V
13 °C 10 km+ 3.500 ft 100° 100° 7 kt METAR YPAD 122100Z 10007KT 9999 BKN035 13/08 Q1024
06:30
V
12 °C 10 km+ 3.500 ft 360° 360° 0 kt METAR YPAD 122030Z 00000KT 9999 BKN035 12/08 Q1024
06:00
V
12 °C 10 km+ 3.500 ft 110° 110° 1 kt METAR YPAD 122000Z 11001KT 9999 BKN035 12/08 Q1024
05:30
V
12 °C 10 km+ 3.500 ft 070° 070° 3 kt METAR YPAD 121930Z 07003KT 9999 BKN035 12/08 Q1024
05:00
V
12 °C 10 km+ 3.500 ft 050° 050° 5 kt METAR YPAD 121900Z 05005KT 9999 BKN035 12/08 Q1024
04:30
V
11 °C 10 km+ 3.500 ft 090° 090° 3 kt METAR YPAD 121830Z 09003KT 9999 BKN035 11/08 Q1024
04:00
V
11 °C 10 km+ 3.500 ft 360° 360° 0 kt METAR YPAD 121800Z 00000KT 9999 BKN035 11/07 Q1024
03:30
V
11 °C 10 km+ - 090° 090° 5 kt METAR YPAD 121730Z 09005KT 9999 SCT035 11/08 Q1024
03:00
V
11 °C 10 km+ 3.500 ft 140° 140° 5 kt METAR YPAD 121700Z 14005KT 9999 BKN035 11/08 Q1024
02:30
V
11 °C 10 km+ 3.500 ft 130° 130° 6 kt METAR YPAD 121630Z 13006KT 9999 BKN035 11/07 Q1024
02:00
V
11 °C 10 km+ 3.500 ft 150° 150° 6 kt METAR YPAD 121600Z 15006KT 9999 BKN035 11/07 Q1024
01:30
V
10 °C 10 km+ - 150° 150° 5 kt METAR YPAD 121530Z 15005KT 9999 SCT035 10/07 Q1024
01:00
V
10 °C 10 km+ - 190° 190° 2 kt METAR YPAD 121500Z 19002KT 9999 FEW035 10/07 Q1024
00:30
V
11 °C 10 km+ - 360° 360° 0 kt METAR YPAD 121430Z 00000KT 9999 SCT036 11/07 Q1024
00:00
V
11 °C 10 km+ - 140° 140° 4 kt METAR YPAD 121400Z 14004KT 9999 FEW036 11/07 Q1024

12. April 2024

Uhrzeit Code Wetter Temp. Sichtweite Wolkendecke Wind METAR/SPECI
23:30
V
11 °C 10 km+ - 140° 140° 6 kt METAR YPAD 121330Z 14006KT 9999 FEW036 11/07 Q1024
23:00
V
12 °C 10 km+ - 200° 200° 4 kt METAR YPAD 121300Z 20004KT 9999 FEW032 12/07 Q1024
22:30
V
12 °C 10 km+ - 140° 140° 4 kt METAR YPAD 121230Z 14004KT 9999 FEW032 12/07 Q1024
22:00
V
13 °C 10 km+ - 130° 130° 5 kt METAR YPAD 121200Z 13005KT 9999 FEW032 13/07 Q1024
21:30
V
13 °C 10 km+ - 140° 140° 5 kt METAR YPAD 121130Z 14005KT 9999 FEW032 13/07 Q1024
21:00
V
13 °C 10 km+ - 140° 140° 6 kt METAR YPAD 121100Z 14006KT 9999 FEW032 13/07 Q1024
20:30
V
14 °C 10 km+ - 140° 140° 7 kt METAR YPAD 121030Z 14007KT 9999 FEW032 14/08 Q1024
20:00
V
15 °C 10 km+ - 150° 150° 8 kt METAR YPAD 121000Z 15008KT 9999 FEW032 15/08 Q1024
19:30
V
16 °C 10 km+ - 190° 190° 8 kt METAR YPAD 120930Z 19008KT 9999 FEW032 16/08 Q1023
19:00
V
16 °C 10 km+ - 200° 200° 9 kt METAR YPAD 120900Z 20009KT 9999 FEW035 16/09 Q1023
18:30
V
16 °C 10 km+ - 200° 200° 8 kt METAR YPAD 120830Z 20008KT 9999 FEW040 16/09 Q1023
18:00
V
17 °C 10 km+ - 220° 220° 10 kt METAR YPAD 120800Z 22010KT 9999 FEW040 17/09 Q1023
17:30
V
17 °C 10 km+ - 210° 210° 11 kt METAR YPAD 120730Z 21011KT 9999 FEW040 17/09 Q1023
17:00
V
17 °C 10 km+ - 230° 230° 12 kt METAR YPAD 120700Z 23012KT 9999 FEW042 17/09 Q1022
16:30
V
17 °C 10 km+ - 230° 230° 13 kt METAR YPAD 120630Z 23013KT 9999 FEW042 17/08 Q1022
16:00
V
18 °C 10 km+ - 230° 230° 13 kt METAR YPAD 120600Z 23013KT 9999 FEW042 18/09 Q1022
Eine Änderung melden